Time;durP1;ratioP1;P1;durP2;ratioP2;P2;SDS_P1;SDS_P2;PMS_P1;PMS_P2;Temp;Humidity;BMP_temperature;BMP_pressure;BME280_temperature;BME280_humidity;BME280_pressure;Samples;Min_cycle;Max_cycle;Signal;HPM_P1;HPM_P2
2022/07/23 00:00:52;;;;;;;13.00;12.00;;;;;;;;;;5077496;28;20447;-90
2022/07/23 00:03:18;;;;;;;14.90;13.50;;;;;;;;;;5090870;28;20425;-89
2022/07/23 00:05:44;;;;;;;14.00;12.77;;;;;;;;;;5047044;28;20951;-91
2022/07/23 00:08:10;;;;;;;14.20;12.80;;;;;;;;;;5045219;28;20433;-89
2022/07/23 00:10:36;;;;;;;15.27;13.77;;;;;;;;;;5072506;28;20428;-89
2022/07/23 00:13:03;;;;;;;17.73;12.97;;;;;;;;;;5034674;28;20490;-89
2022/07/23 00:15:29;;;;;;;14.73;13.40;;;;;;;;;;5067783;28;20472;-89
2022/07/23 00:17:55;;;;;;;14.97;13.67;;;;;;;;;;5060323;28;20530;-89
2022/07/23 00:20:21;;;;;;;15.57;14.10;;;;;;;;;;5069735;28;20433;-90
2022/07/23 00:22:48;;;;;;;13.73;12.53;;;;;;;;;;5032830;28;20431;-90
2022/07/23 00:25:14;;;;;;;18.10;14.97;;;;;;;;;;5067818;28;20432;-90
2022/07/23 00:27:40;;;;;;;19.77;15.80;;;;;;;;;;5057116;28;20481;-89
2022/07/23 00:30:07;;;;;;;17.70;15.70;;;;;;;;;;5073229;28;20433;-90
2022/07/23 00:32:45;;;;;;;17.57;15.87;;;;;;;;;;5051017;28;20479;-89
2022/07/23 00:35:11;;;;;;;17.00;15.30;;;;;;;;;;5045666;28;20450;-89
2022/07/23 00:37:37;;;;;;;21.47;19.00;;;;;;;;;;5067168;28;20483;-91
2022/07/23 00:40:03;;;;;;;18.03;16.23;;;;;;;;;;5064038;28;20430;-89
2022/07/23 00:42:31;;;;;;;19.00;17.10;;;;;;;;;;5046680;28;20430;-89
2022/07/23 00:44:57;;;;;;;17.00;15.37;;;;;;;;;;5053721;28;20460;-89
2022/07/23 00:47:23;;;;;;;17.20;15.27;;;;;;;;;;5085195;28;20452;-89
2022/07/23 00:49:49;;;;;;;20.27;17.40;;;;;;;;;;5059449;28;20513;-90
2022/07/23 00:52:15;;;;;;;20.50;18.40;;;;;;;;;;5054205;28;20437;-91
2022/07/23 00:54:44;;;;;;;19.17;17.40;;;;;;;;;;5068645;28;20446;-90
2022/07/23 00:57:10;;;;;;;19.87;17.70;;;;;;;;;;5031586;28;20461;-88
2022/07/23 00:59:36;;;;;;;18.60;16.70;;;;;;;;;;5068964;28;20458;-90
2022/07/23 01:02:02;;;;;;;21.10;18.80;;;;;;;;;;5057252;28;20429;-91
2022/07/23 01:04:28;;;;;;;18.07;16.23;;;;;;;;;;5056283;28;20443;-91
2022/07/23 01:06:54;;;;;;;20.77;18.13;;;;;;;;;;5073768;28;20452;-90
2022/07/23 01:09:20;;;;;;;19.37;17.27;;;;;;;;;;5053401;28;20419;-90
2022/07/23 01:11:46;;;;;;;21.63;18.13;;;;;;;;;;5076010;28;20447;-90
2022/07/23 01:14:14;;;;;;;18.10;16.20;;;;;;;;;;5056068;28;20429;-91
2022/07/23 01:16:41;;;;;;;22.80;18.37;;;;;;;;;;5060868;28;20939;-90
2022/07/23 01:19:07;;;;;;;24.97;18.87;;;;;;;;;;5060631;28;20457;-89
2022/07/23 01:21:37;;;;;;;21.97;18.07;;;;;;;;;;5062513;28;20426;-90
2022/07/23 01:24:03;;;;;;;24.30;19.33;;;;;;;;;;5045751;28;20431;-90
2022/07/23 01:26:30;;;;;;;20.60;18.47;;;;;;;;;;5071297;28;20485;-90
2022/07/23 01:28:56;;;;;;;20.13;17.37;;;;;;;;;;5053459;28;20454;-90
2022/07/23 01:31:22;;;;;;;24.80;18.97;;;;;;;;;;5042954;28;20459;-90
2022/07/23 01:33:49;;;;;;;24.93;18.10;;;;;;;;;;5071168;28;20477;-90
2022/07/23 01:36:15;;;;;;;20.83;18.60;;;;;;;;;;5073420;28;20456;-90
2022/07/23 01:38:44;;;;;;;21.20;16.73;;;;;;;;;;5033069;28;20530;-90
2022/07/23 01:41:10;;;;;;;19.93;17.80;;;;;;;;;;5076482;28;20561;-91
2022/07/23 01:43:36;;;;;;;20.80;18.67;;;;;;;;;;5055383;28;20468;-89
2022/07/23 01:46:02;;;;;;;19.30;17.40;;;;;;;;;;5055045;28;20401;-91
2022/07/23 01:48:39;;;;;;;;;;;;;;;;;;;;;
2022/07/23 01:51:06;;;;;;;20.37;17.57;;;;;;;;;;5043754;28;20498;-90
2022/07/23 01:53:32;;;;;;;19.63;17.73;;;;;;;;;;5054748;28;20473;-89
2022/07/23 01:56:21;;;;;;;19.17;17.17;;;;;;;;;;5063731;28;20418;-90
2022/07/23 01:58:59;;;;;;;24.97;18.80;;;;;;;;;;5042459;28;20446;-92
2022/07/23 02:01:25;;;;;;;19.13;17.13;;;;;;;;;;5053665;28;20421;-91
2022/07/23 02:03:51;;;;;;;19.80;16.67;;;;;;;;;;5076578;28;20954;-91
2022/07/23 02:06:37;;;;;;;20.50;18.17;;;;;;;;;;5078435;28;20393;-90
2022/07/23 02:09:06;;;;;;;24.00;19.60;;;;;;;;;;5046347;28;20449;-90
2022/07/23 02:11:43;;;;;;;22.30;19.40;;;;;;;;;;5077768;28;20476;-91
2022/07/23 02:14:09;;;;;;;23.07;18.97;;;;;;;;;;5044502;28;20417;-90
2022/07/23 02:16:38;;;;;;;23.50;21.00;;;;;;;;;;5057596;28;20433;-91
2022/07/23 02:19:26;;;;;;;21.67;19.33;;;;;;;;;;5056031;28;20476;-90
2022/07/23 02:22:05;;;;;;;20.03;17.97;;;;;;;;;;5058162;28;20544;-90
2022/07/23 02:24:31;;;;;;;20.17;17.97;;;;;;;;;;5066393;28;20422;-91
2022/07/23 02:26:58;;;;;;;23.87;19.50;;;;;;;;;;5077427;28;20441;-90
2022/07/23 02:29:27;;;;;;;22.07;18.07;;;;;;;;;;5058903;28;20441;-91
2022/07/23 02:32:22;;;;;;;22.60;19.77;;;;;;;;;;5137561;22;20445;-91
2022/07/23 02:34:52;;;;;;;20.30;18.40;;;;;;;;;;5039316;28;20486;-90
2022/07/23 02:37:18;;;;;;;25.40;19.90;;;;;;;;;;5039121;28;20450;-91
2022/07/23 02:39:48;;;;;;;27.67;20.77;;;;;;;;;;5041609;28;20470;-91
2022/07/23 02:42:26;;;;;;;;;;;;;;;;;;;;;
2022/07/23 02:44:55;;;;;;;23.70;19.63;;;;;;;;;;5040134;28;20434;-90
2022/07/23 02:47:22;;;;;;;27.33;22.07;;;;;;;;;;5058568;28;20426;-92
2022/07/23 02:49:48;;;;;;;31.10;22.30;;;;;;;;;;5042479;28;20513;-90
2022/07/23 02:52:17;;;;;;;30.40;21.00;;;;;;;;;;5043099;28;20449;-89
2022/07/23 02:54:44;;;;;;;30.43;24.13;;;;;;;;;;5023263;28;20478;-90
2022/07/23 02:57:13;;;;;;;30.60;20.63;;;;;;;;;;5042694;28;20521;-89
2022/07/23 02:59:39;;;;;;;31.57;22.60;;;;;;;;;;5280132;22;20529;-89
2022/07/23 03:17:43;;;;;;;34.30;25.53;;;;;;;;;;5255721;22;20481;-89
2022/07/23 03:20:16;;;;;;;37.23;24.50;;;;;;;;;;5049045;28;20439;-90
2022/07/23 03:22:51;;;;;;;34.97;25.23;;;;;;;;;;5036952;28;20426;-92
2022/07/23 03:25:17;;;;;;;30.30;24.07;;;;;;;;;;5036642;28;20465;-90
2022/07/23 03:27:47;;;;;;;34.03;24.10;;;;;;;;;;5075397;28;20450;-90
2022/07/23 03:30:16;;;;;;;35.90;24.17;;;;;;;;;;5040461;28;20436;-89
2022/07/23 03:32:44;;;;;;;36.50;24.10;;;;;;;;;;5076739;28;20430;-90
2022/07/23 03:35:13;;;;;;;35.93;25.60;;;;;;;;;;5049594;28;20469;-89
2022/07/23 03:37:41;;;;;;;37.23;24.90;;;;;;;;;;5076234;28;20474;-91
2022/07/23 03:40:35;;;;;;;35.17;25.23;;;;;;;;;;5042699;28;20434;-90
2022/07/23 03:43:01;;;;;;;36.73;24.87;;;;;;;;;;5076103;28;20424;-91
2022/07/23 03:45:27;;;;;;;30.40;22.93;;;;;;;;;;5057632;28;20464;-90
2022/07/23 03:47:53;;;;;;;31.30;22.03;;;;;;;;;;5072344;28;20510;-91
2022/07/23 03:50:20;;;;;;;30.40;22.13;;;;;;;;;;5057492;28;20422;-90
2022/07/23 03:52:46;;;;;;;32.13;22.00;;;;;;;;;;5073299;28;20422;-90
2022/07/23 03:55:12;;;;;;;30.13;22.77;;;;;;;;;;5045714;28;20549;-91
2022/07/23 03:57:38;;;;;;;33.40;22.23;;;;;;;;;;5042132;28;20427;-91
2022/07/23 04:00:06;;;;;;;31.33;23.17;;;;;;;;;;5073205;28;20457;-91
2022/07/23 04:02:32;;;;;;;33.07;22.80;;;;;;;;;;5074718;28;20514;-91
2022/07/23 04:05:00;;;;;;;32.40;23.80;;;;;;;;;;5020670;28;20435;-91
2022/07/23 04:07:26;;;;;;;40.67;24.53;;;;;;;;;;5054915;28;20434;-90
2022/07/23 04:09:53;;;;;;;34.33;24.43;;;;;;;;;;5047692;28;20439;-91
2022/07/23 04:12:20;;;;;;;29.73;20.87;;;;;;;;;;5055652;28;20431;-91
2022/07/23 04:14:51;;;;;;;26.57;20.37;;;;;;;;;;5038836;28;20439;-90
2022/07/23 04:17:17;;;;;;;24.20;20.40;;;;;;;;;;5021769;28;20424;-88
2022/07/23 04:19:43;;;;;;;21.57;19.30;;;;;;;;;;5076839;28;20461;-90
2022/07/23 04:22:10;;;;;;;28.33;21.00;;;;;;;;;;5059547;28;20485;-90
2022/07/23 04:24:36;;;;;;;29.03;21.37;;;;;;;;;;5072960;28;20449;-89
2022/07/23 04:27:03;;;;;;;32.00;21.80;;;;;;;;;;5060058;28;20442;-91
2022/07/23 04:29:32;;;;;;;26.10;21.73;;;;;;;;;;5143499;22;20566;-94
2022/07/23 04:31:58;;;;;;;29.00;21.50;;;;;;;;;;5036467;28;20398;-94
2022/07/23 04:34:26;;;;;;;26.20;21.20;;;;;;;;;;5053641;28;20411;-93
2022/07/23 04:36:53;;;;;;;22.90;20.33;;;;;;;;;;5055514;28;20410;-94
2022/07/23 04:39:19;;;;;;;26.07;20.93;;;;;;;;;;5050325;28;20469;-92
2022/07/23 04:41:45;;;;;;;24.13;19.63;;;;;;;;;;5038326;28;20458;-92
2022/07/23 04:44:13;;;;;;;22.90;20.37;;;;;;;;;;5054602;28;20427;-93
2022/07/23 04:46:39;;;;;;;25.37;20.00;;;;;;;;;;5054524;28;20514;-92
2022/07/23 04:49:08;;;;;;;26.33;19.20;;;;;;;;;;5038738;28;20446;-93
2022/07/23 04:51:34;;;;;;;26.30;20.30;;;;;;;;;;5052761;28;20449;-93
2022/07/23 04:54:03;;;;;;;22.43;19.03;;;;;;;;;;5054700;28;20477;-93
2022/07/23 04:56:30;;;;;;;24.90;21.40;;;;;;;;;;5219480;22;20490;-91
2022/07/23 04:58:57;;;;;;;20.67;18.57;;;;;;;;;;5016431;28;20483;-92
2022/07/23 05:01:23;;;;;;;18.63;16.83;;;;;;;;;;5026503;28;20494;-93
2022/07/23 05:03:50;;;;;;;18.93;17.13;;;;;;;;;;5040523;28;20454;-92
2022/07/23 05:06:18;;;;;;;18.47;16.47;;;;;;;;;;5020651;28;20427;-92
2022/07/23 05:08:44;;;;;;;17.17;15.57;;;;;;;;;;5047962;28;20489;-93
2022/07/23 05:11:10;;;;;;;16.80;15.30;;;;;;;;;;5023796;28;20442;-92
2022/07/23 05:13:36;;;;;;;16.17;14.77;;;;;;;;;;5044932;28;20461;-92
2022/07/23 05:16:03;;;;;;;15.13;13.83;;;;;;;;;;5038385;28;20427;-92
2022/07/23 05:18:34;;;;;;;16.67;15.17;;;;;;;;;;5021800;28;20459;-91
2022/07/23 05:21:00;;;;;;;14.60;13.40;;;;;;;;;;5018837;28;20432;-92
2022/07/23 05:23:26;;;;;;;15.77;14.17;;;;;;;;;;5016809;28;20478;-91
2022/07/23 05:25:54;;;;;;;13.90;12.90;;;;;;;;;;5008498;28;20438;-93
2022/07/23 05:28:20;;;;;;;15.40;14.10;;;;;;;;;;5039823;28;20458;-93
2022/07/23 05:30:46;;;;;;;15.50;14.10;;;;;;;;;;5015401;28;20430;-92
2022/07/23 05:33:12;;;;;;;16.10;14.60;;;;;;;;;;5032525;28;20458;-93
2022/07/23 05:35:38;;;;;;;15.20;13.83;;;;;;;;;;5035726;28;20470;-93
2022/07/23 05:38:04;;;;;;;19.13;17.30;;;;;;;;;;5039128;28;20457;-92
2022/07/23 05:40:30;;;;;;;17.23;15.53;;;;;;;;;;5019247;28;20473;-93
2022/07/23 05:42:56;;;;;;;14.90;13.77;;;;;;;;;;5022593;28;20435;-93
2022/07/23 05:45:22;;;;;;;15.77;14.37;;;;;;;;;;5039188;28;20909;-92
2022/07/23 05:47:49;;;;;;;15.37;14.07;;;;;;;;;;5021284;28;20462;-92
2022/07/23 05:50:16;;;;;;;16.23;14.83;;;;;;;;;;5042897;28;20631;-93
2022/07/23 05:52:42;;;;;;;16.67;15.23;;;;;;;;;;5041133;28;20438;-92
2022/07/23 05:55:09;;;;;;;16.10;14.70;;;;;;;;;;5030006;28;20513;-91
2022/07/23 05:57:35;;;;;;;17.07;15.50;;;;;;;;;;5048061;28;20429;-91
2022/07/23 06:00:02;;;;;;;16.37;14.97;;;;;;;;;;5055692;28;20414;-92
2022/07/23 06:02:28;;;;;;;17.00;15.40;;;;;;;;;;5020495;28;20447;-92
2022/07/23 06:04:54;;;;;;;17.83;16.23;;;;;;;;;;5039434;28;20439;-92
2022/07/23 06:07:20;;;;;;;18.03;16.33;;;;;;;;;;5048170;28;20434;-92
2022/07/23 06:09:49;;;;;;;19.33;17.47;;;;;;;;;;5016240;28;20454;-92
2022/07/23 06:12:18;;;;;;;21.70;18.80;;;;;;;;;;5047685;28;20478;-92
2022/07/23 06:14:44;;;;;;;21.80;19.50;;;;;;;;;;5030279;28;20489;-92
2022/07/23 06:17:10;;;;;;;20.73;18.87;;;;;;;;;;5052298;28;20430;-93
2022/07/23 06:19:39;;;;;;;21.43;19.30;;;;;;;;;;5018927;28;20541;-92
2022/07/23 06:22:05;;;;;;;21.07;19.17;;;;;;;;;;5053108;28;20453;-91
2022/07/23 06:24:33;;;;;;;21.97;19.97;;;;;;;;;;5047429;28;20415;-88
2022/07/23 06:27:16;;;;;;;21.23;19.13;;;;;;;;;;5017485;28;20420;-92
2022/07/23 06:29:45;;;;;;;21.57;19.27;;;;;;;;;;5029405;28;20430;-92
2022/07/23 06:32:11;;;;;;;21.67;19.53;;;;;;;;;;5056089;28;20441;-92
2022/07/23 06:34:37;;;;;;;20.83;18.63;;;;;;;;;;5040821;28;20439;-93
2022/07/23 06:37:04;;;;;;;19.20;17.50;;;;;;;;;;5050991;28;20905;-92
2022/07/23 06:39:30;;;;;;;19.77;17.87;;;;;;;;;;5019972;28;20486;-92
2022/07/23 06:41:56;;;;;;;18.60;17.00;;;;;;;;;;5055169;28;20410;-93
2022/07/23 06:44:22;;;;;;;18.60;17.10;;;;;;;;;;5055425;28;20457;-91
2022/07/23 06:46:48;;;;;;;17.10;15.50;;;;;;;;;;5040180;28;20450;-93
2022/07/23 06:49:14;;;;;;;19.30;17.60;;;;;;;;;;5035552;28;20499;-93
2022/07/23 06:51:41;;;;;;;17.17;15.80;;;;;;;;;;5034709;28;20464;-93
2022/07/23 06:54:07;;;;;;;17.60;16.20;;;;;;;;;;5053147;28;20438;-93
2022/07/23 06:56:38;;;;;;;15.17;13.83;;;;;;;;;;5052778;28;20478;-93
2022/07/23 06:59:04;;;;;;;16.50;15.20;;;;;;;;;;5038928;28;20466;-92
2022/07/23 07:01:30;;;;;;;17.50;16.10;;;;;;;;;;5051570;28;20442;-93
2022/07/23 07:03:56;;;;;;;15.37;14.27;;;;;;;;;;5030750;28;20513;-93
2022/07/23 07:06:23;;;;;;;17.10;15.73;;;;;;;;;;5047693;28;20423;-93
2022/07/23 07:08:49;;;;;;;18.83;17.20;;;;;;;;;;5025675;28;20427;-88
2022/07/23 07:11:15;;;;;;;17.43;16.20;;;;;;;;;;5038839;28;20419;-95
2022/07/23 07:13:41;;;;;;;17.10;15.80;;;;;;;;;;5041843;28;20476;-94
2022/07/23 07:16:07;;;;;;;18.07;16.20;;;;;;;;;;5014173;28;20430;-91
2022/07/23 07:18:33;;;;;;;18.00;16.77;;;;;;;;;;5042806;28;20501;-91
2022/07/23 07:21:03;;;;;;;17.33;15.90;;;;;;;;;;5026360;28;20524;-93
2022/07/23 07:23:49;;;;;;;16.40;15.20;;;;;;;;;;5025227;28;20522;-93
2022/07/23 07:26:15;;;;;;;16.40;15.13;;;;;;;;;;5031861;28;20786;-94
2022/07/23 07:28:41;;;;;;;17.40;15.77;;;;;;;;;;5039932;28;20437;-92
2022/07/23 07:31:23;;;;;;;15.93;14.60;;;;;;;;;;5033757;23;20512;-94
2022/07/23 07:33:50;;;;;;;15.40;13.80;;;;;;;;;;5064383;28;20432;-95
2022/07/23 07:36:17;;;;;;;15.60;14.40;;;;;;;;;;5061754;28;20449;-92
2022/07/23 07:38:43;;;;;;;14.30;13.20;;;;;;;;;;5055219;28;20460;-93
2022/07/23 07:41:10;;;;;;;12.23;11.27;;;;;;;;;;5065373;28;20452;-95
2022/07/23 07:43:36;;;;;;;12.10;11.13;;;;;;;;;;5071738;28;20433;-91
2022/07/23 07:46:09;;;;;;;18.97;13.57;;;;;;;;;;5069065;28;20452;-92
2022/07/23 07:48:35;;;;;;;14.37;13.10;;;;;;;;;;5050988;28;20458;-93
2022/07/23 07:51:05;;;;;;;14.43;13.47;;;;;;;;;;5072475;28;20534;-93
2022/07/23 07:53:31;;;;;;;14.60;13.67;;;;;;;;;;5068728;28;20460;-93
2022/07/23 07:56:04;;;;;;;15.27;14.00;;;;;;;;;;5058141;28;20410;-93
2022/07/23 07:58:33;;;;;;;14.33;13.13;;;;;;;;;;5056259;28;20445;-93
2022/07/23 08:03:35;;;;;;;11.97;11.17;;;;;;;;;;5055088;26;20486;-91
2022/07/23 08:06:12;;;;;;;13.17;12.30;;;;;;;;;;5051458;28;20430;-93
2022/07/23 08:08:38;;;;;;;16.57;15.37;;;;;;;;;;5053442;28;20462;-93
2022/07/23 08:11:05;;;;;;;15.00;13.90;;;;;;;;;;5070966;28;20426;-92
2022/07/23 08:13:34;;;;;;;13.47;12.50;;;;;;;;;;5051693;28;20514;-93
2022/07/23 08:16:00;;;;;;;13.10;12.30;;;;;;;;;;5060490;28;20426;-92
2022/07/23 08:18:28;;;;;;;18.57;17.07;;;;;;;;;;5091981;28;20476;-92
2022/07/23 08:20:54;;;;;;;19.27;17.30;;;;;;;;;;5075947;28;20420;-93
2022/07/23 08:23:21;;;;;;;16.43;15.33;;;;;;;;;;5050397;28;20501;-91
2022/07/23 08:25:47;;;;;;;13.67;12.70;;;;;;;;;;5057599;28;20440;-92
2022/07/23 08:30:59;;;;;;;9.97;9.43;;;;;;;;;;5211423;22;20516;-92
2022/07/23 08:33:25;;;;;;;10.47;9.90;;;;;;;;;;5057618;28;20433;-93
2022/07/23 08:35:55;;;;;;;11.20;9.50;;;;;;;;;;5042818;28;20491;-95
2022/07/23 08:38:22;;;;;;;8.50;8.00;;;;;;;;;;5037570;28;20481;-93
2022/07/23 08:40:52;;;;;;;7.50;7.20;;;;;;;;;;5050817;28;20809;-93
2022/07/23 08:43:20;;;;;;;6.63;6.43;;;;;;;;;;5031637;28;20426;-91
2022/07/23 08:45:50;;;;;;;10.37;9.70;;;;;;;;;;5052393;28;20970;-93
2022/07/23 08:48:24;;;;;;;7.47;7.00;;;;;;;;;;5050373;28;20464;-93
2022/07/23 08:50:51;;;;;;;6.70;6.40;;;;;;;;;;5047507;28;20434;-94
2022/07/23 08:53:18;;;;;;;6.37;6.27;;;;;;;;;;5050246;28;20421;-95
2022/07/23 08:55:47;;;;;;;10.17;9.67;;;;;;;;;;5045170;28;20455;-94
2022/07/23 08:58:14;;;;;;;6.50;6.10;;;;;;;;;;5047023;28;20805;-95
2022/07/23 09:00:40;;;;;;;7.13;6.90;;;;;;;;;;5059089;28;20446;-93
2022/07/23 09:03:06;;;;;;;6.37;5.97;;;;;;;;;;5050066;28;20445;-93
2022/07/23 09:05:32;;;;;;;6.53;6.17;;;;;;;;;;5048623;28;20950;-91
2022/07/23 09:08:14;;;;;;;5.83;5.63;;;;;;;;;;5049640;28;20425;-94
2022/07/23 09:10:49;;;;;;;5.37;5.17;;;;;;;;;;5061958;28;20394;-94
2022/07/23 09:13:30;;;;;;;5.90;5.60;;;;;;;;;;5638670;22;20509;-91
2022/07/23 09:15:58;;;;;;;5.27;4.87;;;;;;;;;;5024291;28;20876;-88
2022/07/23 09:18:31;;;;;;;5.17;5.00;;;;;;;;;;5018410;28;20548;-88
2022/07/23 09:21:08;;;;;;;4.70;4.60;;;;;;;;;;5014597;28;20443;-90
2022/07/23 09:23:38;;;;;;;4.63;4.33;;;;;;;;;;5003130;28;20448;-89
2022/07/23 09:26:17;;;;;;;4.37;4.07;;;;;;;;;;5011441;28;20451;-90
2022/07/23 09:28:50;;;;;;;3.47;3.47;;;;;;;;;;5015707;28;20439;-89
2022/07/23 09:31:16;;;;;;;4.07;3.97;;;;;;;;;;5031242;28;20423;-91
2022/07/23 09:33:48;;;;;;;3.24;3.19;;;;;;;;;;4334414;28;10022463;-89
2022/07/23 09:36:15;;;;;;;4.47;4.20;;;;;;;;;;5013798;28;20204;-87
2022/07/23 09:38:51;;;;;;;3.97;3.77;;;;;;;;;;5023699;28;20471;-90
2022/07/23 09:41:17;;;;;;;4.67;4.57;;;;;;;;;;5023186;28;20462;-92
2022/07/23 09:43:45;;;;;;;4.43;4.33;;;;;;;;;;5027840;28;20445;-93
2022/07/23 09:46:28;;;;;;;4.73;4.57;;;;;;;;;;5033831;28;20447;-90
2022/07/23 09:48:56;;;;;;;4.10;4.00;;;;;;;;;;5024797;28;20470;-89
2022/07/23 09:53:51;;;;;;;3.83;3.50;;;;;;;;;;5021935;28;20429;-90
2022/07/23 09:56:27;;;;;;;3.00;2.90;;;;;;;;;;5129225;22;21072;-90
2022/07/23 09:59:11;;;;;;;3.30;3.10;;;;;;;;;;5018135;28;20489;-94
2022/07/23 10:01:37;;;;;;;3.40;3.30;;;;;;;;;;5012979;28;20561;-91
2022/07/23 10:04:04;;;;;;;3.50;3.30;;;;;;;;;;5043127;28;20446;-90
2022/07/23 10:06:31;;;;;;;2.57;2.53;;;;;;;;;;5026113;28;20423;-92
2022/07/23 10:09:01;;;;;;;3.47;2.97;;;;;;;;;;4992118;28;20463;-93
2022/07/23 10:11:42;;;;;;;3.17;3.07;;;;;;;;;;5011028;28;20490;-87
2022/07/23 10:14:14;;;;;;;2.40;2.40;;;;;;;;;;5014305;28;20435;-94
2022/07/23 10:19:45;;;;;;;3.07;2.87;;;;;;;;;;5051797;28;20931;-92
2022/07/23 10:22:21;;;;;;;2.97;2.77;;;;;;;;;;5021604;28;20443;-96
2022/07/23 10:24:53;;;;;;;3.17;3.07;;;;;;;;;;5046648;28;20472;-89
2022/07/23 10:30:42;;;;;;;2.80;2.70;;;;;;;;;;5025377;23;20489;-90
2022/07/23 10:33:29;;;;;;;2.90;2.80;;;;;;;;;;5066596;28;20486;-91
2022/07/23 10:43:44;;;;;;;3.30;3.20;;;;;;;;;;5523894;23;20491;-93
2022/07/23 10:49:27;;;;;;;2.97;2.77;;;;;;;;;;5035605;28;20427;-94
2022/07/23 10:52:15;;;;;;;3.57;3.37;;;;;;;;;;5030459;28;20451;-95
2022/07/23 10:54:41;;;;;;;3.10;3.00;;;;;;;;;;5033405;28;20423;-96
2022/07/23 10:57:10;;;;;;;3.10;3.10;;;;;;;;;;5102550;22;20662;-96
2022/07/23 10:59:55;;;;;;;3.53;3.40;;;;;;;;;;5039622;28;20522;-93
2022/07/23 11:02:22;;;;;;;3.60;3.40;;;;;;;;;;5075005;28;20452;-90
2022/07/23 11:04:57;;;;;;;2.70;2.70;;;;;;;;;;5055881;28;20518;-93
2022/07/23 11:07:25;;;;;;;3.97;3.87;;;;;;;;;;5038087;28;20506;-95
2022/07/23 11:10:15;;;;;;;4.10;4.00;;;;;;;;;;5243490;23;20530;-94
2022/07/23 11:12:41;;;;;;;3.20;3.10;;;;;;;;;;5050317;28;20443;-92
2022/07/23 11:15:12;;;;;;;2.73;2.73;;;;;;;;;;5239032;22;20433;-91
2022/07/23 11:37:12;;;;;;;3.90;2.80;;;;;;;;;;5313982;22;21965;-92
2022/07/23 11:39:49;;;;;;;2.93;2.90;;;;;;;;;;5054058;28;20486;-96
2022/07/23 11:47:33;;;;;;;3.30;3.10;;;;;;;;;;5587791;22;20546;-93
2022/07/23 11:50:00;;;;;;;3.13;3.00;;;;;;;;;;5286600;22;20744;-94
2022/07/23 12:03:22;;;;;;;2.73;2.47;;;;;;;;;;5084836;28;20501;-92
2022/07/23 12:05:56;;;;;;;2.50;2.40;;;;;;;;;;5076882;28;20416;-95
2022/07/23 12:08:28;;;;;;;2.77;2.60;;;;;;;;;;5094102;28;20437;-95
2022/07/23 12:10:54;;;;;;;2.73;2.63;;;;;;;;;;5046629;28;20433;-93
2022/07/23 12:13:22;;;;;;;2.77;2.70;;;;;;;;;;5074681;28;20690;-92
2022/07/23 12:15:51;;;;;;;3.13;3.00;;;;;;;;;;5091749;28;20526;-94
2022/07/23 12:18:19;;;;;;;2.83;2.73;;;;;;;;;;5312453;22;20582;-93
2022/07/23 12:20:47;;;;;;;2.70;2.50;;;;;;;;;;5034386;28;21007;-92
2022/07/23 12:23:13;;;;;;;5.87;2.90;;;;;;;;;;5025728;28;20438;-93
2022/07/23 12:25:42;;;;;;;2.70;2.50;;;;;;;;;;5034692;28;20749;-93
2022/07/23 12:28:09;;;;;;;2.77;2.77;;;;;;;;;;5029132;28;20426;-93
2022/07/23 12:30:39;;;;;;;3.10;2.90;;;;;;;;;;5028950;28;20488;-93
2022/07/23 12:33:05;;;;;;;2.07;2.07;;;;;;;;;;5036126;28;20638;-88
2022/07/23 12:35:44;;;;;;;2.89;2.73;;;;;;;;;;4633053;28;10002540;-93
2022/07/23 12:38:11;;;;;;;3.63;3.43;;;;;;;;;;5019190;28;20208;-91
2022/07/23 12:40:43;;;;;;;2.90;2.90;;;;;;;;;;5022738;28;20438;-94
2022/07/23 12:43:10;;;;;;;2.60;2.60;;;;;;;;;;5029437;28;20839;-94
2022/07/23 12:45:47;;;;;;;2.80;2.80;;;;;;;;;;5039673;28;20436;-92
2022/07/23 12:48:24;;;;;;;2.80;2.70;;;;;;;;;;5014752;28;20439;-92
2022/07/23 12:50:50;;;;;;;2.50;2.40;;;;;;;;;;5054314;28;20452;-93
2022/07/23 12:53:57;;;;;;;3.50;3.40;;;;;;;;;;5046860;28;20477;-96
2022/07/23 12:56:26;;;;;;;3.13;3.03;;;;;;;;;;5005066;28;20643;-93
2022/07/23 12:58:57;;;;;;;3.13;2.93;;;;;;;;;;5041873;28;20462;-93
2022/07/23 13:01:24;;;;;;;3.23;3.13;;;;;;;;;;5026432;28;20446;-96
2022/07/23 13:04:02;;;;;;;3.30;3.30;;;;;;;;;;5045579;28;20442;-94
2022/07/23 13:06:33;;;;;;;3.60;3.50;;;;;;;;;;5022066;28;20414;-92
2022/07/23 13:09:00;;;;;;;3.97;3.87;;;;;;;;;;5038613;28;20415;-94
2022/07/23 13:11:27;;;;;;;3.60;3.53;;;;;;;;;;5021500;28;20425;-95
2022/07/23 13:13:54;;;;;;;3.50;3.50;;;;;;;;;;5027133;28;20439;-94
2022/07/23 13:16:20;;;;;;;3.77;3.63;;;;;;;;;;5038549;28;20435;-94
2022/07/23 13:18:46;;;;;;;3.07;3.07;;;;;;;;;;5040452;28;20478;-92
2022/07/23 13:21:12;;;;;;;3.07;3.00;;;;;;;;;;5038523;28;20441;-93
2022/07/23 13:23:38;;;;;;;3.13;3.13;;;;;;;;;;5032008;28;20924;-92
2022/07/23 13:26:04;;;;;;;3.87;3.67;;;;;;;;;;5049115;28;20418;-92
2022/07/23 13:28:31;;;;;;;4.50;4.40;;;;;;;;;;5021679;28;20461;-92
2022/07/23 13:30:57;;;;;;;4.83;4.73;;;;;;;;;;5025795;28;20425;-93
2022/07/23 13:33:24;;;;;;;4.97;4.87;;;;;;;;;;5046351;28;20428;-94
2022/07/23 13:35:57;;;;;;;5.47;5.30;;;;;;;;;;5029227;28;20526;-93
2022/07/23 13:38:25;;;;;;;5.40;5.20;;;;;;;;;;5028765;28;20466;-94
2022/07/23 13:49:03;;;;;;;4.67;4.40;;;;;;;;;;5458194;22;20480;-91
2022/07/23 13:51:32;;;;;;;3.60;3.60;;;;;;;;;;5069213;28;20441;-91
2022/07/23 13:54:02;;;;;;;4.30;4.00;;;;;;;;;;5067611;28;20441;-94
2022/07/23 13:56:31;;;;;;;3.83;3.63;;;;;;;;;;5062435;28;20802;-91
2022/07/23 13:59:04;;;;;;;4.10;3.63;;;;;;;;;;5079631;28;20521;-91
2022/07/23 14:01:39;;;;;;;3.67;3.47;;;;;;;;;;5066192;28;20451;-95
2022/07/23 14:04:37;;;;;;;4.67;4.57;;;;;;;;;;5065758;28;20511;-94
2022/07/23 14:07:07;;;;;;;4.70;4.27;;;;;;;;;;5044217;28;20434;-94
2022/07/23 14:09:36;;;;;;;4.63;4.47;;;;;;;;;;5061688;28;20531;-93
2022/07/23 14:12:05;;;;;;;4.43;4.23;;;;;;;;;;5071500;28;20440;-94
2022/07/23 14:14:33;;;;;;;4.67;4.47;;;;;;;;;;5072667;28;20436;-92
2022/07/23 14:17:03;;;;;;;4.40;3.83;;;;;;;;;;5090940;28;20431;-91
2022/07/23 14:19:55;;;;;;;3.83;3.73;;;;;;;;;;5095176;28;20514;-92
2022/07/23 14:22:26;;;;;;;3.93;3.83;;;;;;;;;;5091391;28;20480;-92
2022/07/23 14:25:05;;;;;;;4.10;3.23;;;;;;;;;;5084777;28;20433;-92
2022/07/23 14:52:03;;;;;;;4.63;3.80;;;;;;;;;;5040272;28;20481;-92
2022/07/23 14:54:31;;;;;;;6.03;5.73;;;;;;;;;;5027666;28;21046;-91
2022/07/23 14:57:04;;;;;;;3.73;3.63;;;;;;;;;;5009153;28;20454;-94
2022/07/23 14:59:36;;;;;;;3.60;3.40;;;;;;;;;;5037724;28;20484;-92
2022/07/23 15:02:03;;;;;;;4.00;3.70;;;;;;;;;;5014980;28;20447;-94
2022/07/23 15:04:38;;;;;;;4.27;3.97;;;;;;;;;;5029034;28;20444;-94
2022/07/23 15:07:10;;;;;;;4.10;4.00;;;;;;;;;;5014346;28;20415;-90
2022/07/23 15:09:37;;;;;;;4.00;3.90;;;;;;;;;;5034282;28;20747;-92
2022/07/23 15:12:03;;;;;;;4.17;3.97;;;;;;;;;;5020820;28;20430;-92
2022/07/23 15:14:29;;;;;;;4.23;4.03;;;;;;;;;;5016184;28;20427;-90
2022/07/23 15:16:57;;;;;;;4.47;4.20;;;;;;;;;;5000525;28;20439;-91
2022/07/23 15:19:27;;;;;;;4.33;4.10;;;;;;;;;;5007854;28;20477;-91
2022/07/23 15:21:53;;;;;;;3.37;3.27;;;;;;;;;;5012891;28;20458;-91
2022/07/23 15:24:20;;;;;;;4.40;3.53;;;;;;;;;;5041578;28;20471;-90
2022/07/23 15:26:46;;;;;;;4.03;3.93;;;;;;;;;;5011950;28;21149;-92
2022/07/23 15:29:13;;;;;;;5.60;5.40;;;;;;;;;;5005425;28;20910;-91
2022/07/23 15:31:39;;;;;;;4.30;4.10;;;;;;;;;;5013386;28;20443;-91
2022/07/23 15:34:05;;;;;;;5.00;4.70;;;;;;;;;;5028794;28;20425;-92
2022/07/23 15:36:31;;;;;;;5.83;5.60;;;;;;;;;;5018712;28;20492;-89
2022/07/23 15:38:57;;;;;;;5.37;4.97;;;;;;;;;;5045073;28;20956;-91
2022/07/23 15:41:24;;;;;;;6.57;6.27;;;;;;;;;;5008582;28;20427;-92
2022/07/23 15:43:50;;;;;;;4.50;4.40;;;;;;;;;;5004626;28;20495;-92
2022/07/23 15:46:18;;;;;;;4.07;3.97;;;;;;;;;;5022131;28;20493;-91
2022/07/23 15:48:45;;;;;;;4.40;4.30;;;;;;;;;;5022469;28;20457;-90
2022/07/23 15:51:11;;;;;;;4.17;3.97;;;;;;;;;;5028623;28;20442;-93
2022/07/23 15:53:37;;;;;;;3.50;3.40;;;;;;;;;;5048706;28;20492;-93
2022/07/23 15:56:04;;;;;;;4.10;3.80;;;;;;;;;;5043736;28;20426;-89
2022/07/23 15:58:30;;;;;;;4.57;4.00;;;;;;;;;;5047759;28;20652;-92
2022/07/23 16:00:57;;;;;;;3.60;3.60;;;;;;;;;;5030176;28;20443;-90
2022/07/23 16:03:23;;;;;;;4.00;3.63;;;;;;;;;;5051257;28;20509;-91
2022/07/23 16:05:52;;;;;;;3.43;3.33;;;;;;;;;;5048573;28;20456;-93
2022/07/23 16:08:18;;;;;;;4.10;4.00;;;;;;;;;;5044914;28;20434;-91
2022/07/23 16:10:44;;;;;;;4.33;4.13;;;;;;;;;;5029569;28;20595;-92
2022/07/23 16:13:10;;;;;;;5.00;4.60;;;;;;;;;;5034432;28;20470;-93
2022/07/23 16:15:44;;;;;;;4.17;4.07;;;;;;;;;;5048515;28;20440;-92
2022/07/23 16:18:10;;;;;;;5.07;4.73;;;;;;;;;;5057002;28;20434;-92
2022/07/23 16:20:36;;;;;;;5.20;5.00;;;;;;;;;;5033737;28;20429;-93
2022/07/23 16:23:07;;;;;;;4.90;4.70;;;;;;;;;;5031766;28;20440;-93
2022/07/23 16:25:33;;;;;;;4.93;4.67;;;;;;;;;;5040749;28;20491;-92
2022/07/23 16:27:59;;;;;;;12.33;11.10;;;;;;;;;;5027035;28;20763;-91
2022/07/23 16:30:26;;;;;;;5.50;5.20;;;;;;;;;;5044857;28;20449;-90